Latest Coastal Weather Observations for Kingscote

IDS60701

Issued at 8:31 pm CDT Saturday 31 January 2015 (issued every 10 minutes, with the page automatically refreshed every 10 minutes)

About coastal observations | Map of coastal stations | Coastal observations for SA | Marine services | Other Formats
Station Details ID: 022841 Name: KINGSCOTE AERO Lat: -35.71 Lon: 137.52 Height: 6.23 m
Data from the previous 72 hours. | See also: Recent months at Kingscote
Date/Time
CDT
Temp

°C
Wind Pressure Rain
since 9am
mm
Weather Cloud Vis
km
Sea
Height
m
Swell
Dir
 
Speed
knots
Gust
knots
hPa Trend Height
m
Period
s
Dir
31/08:30pm 16.5 SSE 16 26 1017.8 - 0.0 - Cloudy 10 - - - -
31/08:26pm 16.5 SSE 16 26 1017.7 - 0.0 - Cloudy 10 - - - -
31/08:00pm 16.4 SSE 19 26 1017.8 - 0.0 - Partly cloudy 10 - - - -
31/07:30pm 17.4 SSE 17 26 1017.4 - 0.0 - Partly cloudy 10 - - - -
31/07:00pm 18.0 SSE 17 23 1017.4 - 0.0 - Partly cloudy 10 - - - -
31/06:30pm 18.6 SSE 15 21 1017.3 - 0.0 - Partly cloudy 10 - - - -
31/06:00pm 18.4 SSE 18 23 1017.3 - 0.0 - Mostly cloudy 10 - - - -
31/05:30pm 18.5 SSE 17 22 1017.2 - 0.0 - Partly cloudy 10 - - - -
31/05:00pm 18.5 SE 16 21 1017.3 - 0.0 - Cloudy 10 - - - -
31/04:30pm 19.0 SE 18 26 1017.4 - 0.0 - Partly cloudy 10 - - - -
31/04:00pm 18.8 SSE 15 20 1017.5 - 0.0 - Partly cloudy 10 - - - -
31/03:30pm 20.8 SE 16 23 1017.4 - 0.0 - Partly cloudy 10 - - - -
31/03:00pm 20.2 SE 17 22 1017.2 - 0.0 - Cloudy 10 - - - -
31/02:30pm 20.6 SE 18 24 1017.5 - 0.0 - Partly cloudy 10 - - - -
31/02:00pm 19.4 SSE 17 23 1017.2 - 0.0 - Partly cloudy 10 - - - -
31/01:30pm 18.9 SE 18 22 1017.2 - 0.0 - Cloudy 10 - - - -
31/01:00pm 19.6 SE 16 22 1017.4 - 0.0 - Partly cloudy 10 - - - -
31/12:30pm 18.7 SE 16 21 1017.6 - 0.0 - Partly cloudy 10 - - - -
31/12:00pm 20.1 SSE 15 23 1017.7 - 0.0 - Mostly cloudy 10 - - - -
31/11:30am 19.6 SE 14 19 1018.0 - 0.0 - Partly cloudy 10 - - - -
31/11:00am 19.1 SSE 17 24 1018.1 - 0.0 - Partly cloudy 10 - - - -
31/10:30am 19.3 SE 16 22 1017.9 - 0.0 - Partly cloudy 10 - - - -
31/10:00am 18.7 ESE 16 23 1018.0 - 0.0 - Partly cloudy 10 - - - -
31/09:30am 17.9 ESE 15 22 1017.9 - 0.0 - Partly cloudy 10 - - - -
31/09:00am 16.9 SE 9 14 1018.0 - 0.0 - Cloudy 10 - - - -
31/08:30am 17.4 SE 15 20 1017.6 - 0.0 - Partly cloudy 10 - - - -
31/08:00am 17.3 SE 11 14 1017.4 - 0.0 - Partly cloudy 10 - - - -
31/07:30am 17.1 ESE 13 18 1017.1 - 0.0 - Cloudy 10 - - - -
31/07:00am 16.6 SE 10 14 1016.8 - 0.0 - Partly cloudy 10 - - - -
31/06:30am 16.1 SE 10 14 1016.5 - 0.0 - Partly cloudy 10 - - - -
31/06:00am 15.1 SE 7 8 1016.5 - 0.0 - Mostly cloudy 10 - - - -
31/05:30am 16.0 SE 12 16 1016.3 - 0.0 - Cloudy 10 - - - -
31/05:00am 15.8 ESE 13 17 1015.9 - 0.0 - Partly cloudy 10 - - - -
31/04:30am 15.2 SE 12 16 1015.8 - 0.0 - - 10 - - - -
31/04:00am 15.3 SE 13 16 1015.6 - 0.0 - - 10 - - - -
31/03:30am 15.5 SE 13 18 1015.6 - 0.0 - - 10 - - - -
31/03:01am 15.7 SE 15 25 1015.5 - 0.0 - Partly cloudy 10 - - - -
31/03:00am 15.7 SE 14 25 1015.5 - 0.0 - Mostly clear 10 - - - -
31/02:30am 15.3 SE 13 19 1015.8 - 0.0 - Partly cloudy 10 - - - -
31/02:00am 15.7 SE 12 18 1016.3 - 0.0 - Partly cloudy 10 - - - -
31/01:30am 15.6 SE 12 17 1016.5 - 0.0 - - 10 - - - -
31/01:00am 15.7 SE 13 19 1016.5 - 0.0 - Partly cloudy 10 - - - -
31/12:30am 15.8 SE 14 19 1016.6 - 0.0 - Partly cloudy 10 - - - -
31/12:00am 15.8 SE 14 20 1016.7 - 0.0 - Partly cloudy 10 - - - -
 
Date/Time
CDT
Temp

°C
Wind Pressure Rain
since 9am
mm
Weather Cloud Vis
km
Sea
Height
m
Swell
Dir
 
Speed
knots
Gust
knots
hPa Trend Height
m
Period
s
Dir
30/11:30pm 15.8 SE 14 19 1016.9 - 0.0 - Partly cloudy 10 - - - -
30/11:00pm 15.7 SSE 14 20 1017.0 - 0.0 - Partly cloudy 10 - - - -
30/10:30pm 16.1 SSE 14 21 1017.0 - 0.0 - Partly cloudy 10 - - - -
30/10:00pm 16.2 SE 13 18 1017.1 - 0.0 - Partly cloudy 10 - - - -
30/09:30pm 16.5 SE 14 20 1016.8 - 0.0 - Partly cloudy 10 - - - -
30/09:00pm 16.3 SSE 15 22 1016.5 - 0.0 - Mostly clear 10 - - - -
30/08:30pm 16.6 SSE 15 21 1016.5 - 0.0 - Partly cloudy 10 - - - -
30/08:00pm 17.1 SSE 19 25 1016.4 - 0.0 - Partly cloudy 10 - - - -
30/07:46pm 17.7 SSE 17 27 1016.4 - 0.0 - Partly cloudy 10 - - - -
30/07:30pm 17.8 SSE 18 24 1016.2 - 0.0 - Partly cloudy 10 - - - -
30/07:00pm 18.5 SSE 19 24 1016.0 - 0.0 - - 10 - - - -
30/06:30pm 19.1 SSE 17 24 1015.9 - 0.0 - - 10 - - - -
30/06:00pm 19.7 SSE 17 22 1015.9 - 0.0 - - 10 - - - -
30/05:30pm 20.1 SE 17 25 1016.1 - 0.0 - - 10 - - - -
30/05:00pm 19.7 SSE 17 26 1016.3 - 0.0 - - 10 - - - -
30/04:30pm 20.6 SE 19 24 1016.5 - 0.0 - - 10 - - - -
30/04:00pm 20.9 SE 17 23 1016.7 - 0.0 - - 10 - - - -
30/03:30pm 22.2 SE 18 25 1016.7 - 0.0 - - 10 - - - -
30/03:00pm 21.1 SSE 19 24 1016.7 - 0.0 - - 10 - - - -
30/02:30pm 21.6 SE 17 23 1017.1 - 0.0 - - 10 - - - -
30/02:00pm 20.9 SSE 16 21 1017.5 - 0.0 - - 10 - - - -
30/01:30pm 21.7 SE 16 22 1017.5 - 0.0 - - 10 - - - -
30/01:00pm 22.5 SE 15 19 1017.8 - 0.0 - - 10 - - - -
30/12:30pm 21.4 SE 17 22 1017.8 - 0.0 - - 10 - - - -
30/12:00pm 21.0 SE 15 22 1018.0 - 0.0 - - 10 - - - -
30/11:43am 21.5 SE 15 26 1018.2 - 0.0 - Partly cloudy 10 - - - -
30/11:30am 21.0 SE 15 21 1018.4 - 0.0 - Partly cloudy 10 - - - -
30/11:00am 20.3 SE 15 20 1018.2 - 0.0 - Partly cloudy 10 - - - -
30/10:30am 19.8 SE 15 21 1018.5 - 0.0 - Partly cloudy 10 - - - -
30/10:00am 18.3 SE 15 19 1018.5 - 0.0 - Partly cloudy 10 - - - -
30/09:30am 18.2 SE 17 22 1018.5 - 0.0 - Cloudy 10 - - - -
30/09:00am 18.1 ESE 17 22 1018.4 - 0.0 - Mostly cloudy 10 - - - -
30/08:30am 17.4 SE 16 20 1018.2 - 0.0 - Partly cloudy 10 - - - -
30/08:00am 17.2 SE 14 19 1018.1 - 0.0 - Cloudy 10 - - - -
30/07:30am 16.5 SE 9 12 1017.8 - 0.0 - Partly cloudy 10 - - - -
30/07:00am 15.2 SE 8 13 1017.6 - 0.0 - Partly cloudy 10 - - - -
30/06:30am 14.5 SE 8 11 1017.5 - 0.0 - - 10 - - - -
30/06:00am 14.7 SE 8 11 1017.2 - 0.0 - - 10 - - - -
30/05:30am 14.7 SE 8 11 1016.9 - 0.0 - - 10 - - - -
30/05:00am 14.7 SE 7 8 1016.7 - 0.0 - - 10 - - - -
30/04:30am 14.8 SSE 8 11 1016.7 - 0.0 - - 10 - - - -
30/04:00am 15.1 SSE 7 9 1016.8 - 0.0 - - 10 - - - -
30/03:30am 15.3 SSE 7 11 1016.9 - 0.0 - - 10 - - - -
30/03:00am 15.5 SSE 7 10 1017.0 - 0.0 - - 10 - - - -
30/02:30am 15.9 SSE 9 11 1016.9 - 0.0 - - 10 - - - -
30/02:00am 16.3 SSE 9 13 1017.1 - 0.0 - - 10 - - - -
30/01:30am 16.2 SSE 8 12 1017.3 - 0.0 - - 10 - - - -
30/01:00am 16.4 SSE 9 12 1017.4 - 0.0 - - 10 - - - -
30/12:30am 16.3 SSE 7 11 1017.4 - 0.0 - - 10 - - - -
30/12:00am 16.2 SSE 7 11 1017.6 - 0.0 - - 10 - - - -
 
Date/Time
CDT
Temp

°C
Wind Pressure Rain
since 9am
mm
Weather Cloud Vis
km
Sea
Height
m
Swell
Dir
 
Speed
knots
Gust
knots
hPa Trend Height
m
Period
s
Dir
29/11:30pm 16.3 SSE 7 13 1017.7 - 0.0 - - 10 - - - -
29/11:00pm 16.4 SE 7 11 1017.8 - 0.0 - - 10 - - - -
29/10:30pm 16.4 SE 9 14 1017.9 - 0.0 - - 10 - - - -
29/10:00pm 16.6 SE 9 11 1018.0 - 0.0 - - 10 - - - -
29/09:30pm 16.7 SSE 13 16 1018.0 - 0.0 - - 10 - - - -
29/09:00pm 16.7 SE 7 12 1018.1 - 0.0 - - 10 - - - -
29/08:30pm 17.2 SE 8 12 1018.0 - 0.0 - - 10 - - - -
29/08:00pm 18.0 SSE 15 20 1017.6 - 0.0 - - 10 - - - -
29/07:30pm 18.8 SSE 14 18 1017.4 - 0.0 - - 10 - - - -
29/07:00pm 19.6 SSE 18 22 1017.3 - 0.0 - - 10 - - - -
29/06:30pm 20.6 SSE 18 22 1017.1 - 0.0 - - 10 - - - -
29/06:00pm 21.2 SSE 16 20 1017.1 - 0.0 - - 10 - - - -
29/05:30pm 21.9 SE 15 20 1017.2 - 0.0 - - 10 - - - -
29/05:00pm 22.1 SE 16 22 1017.4 - 0.0 - - 10 - - - -
29/04:30pm 23.0 SE 16 22 1017.6 - 0.0 - - 10 - - - -
29/04:00pm 23.2 SE 15 20 1017.8 - 0.0 - - 10 - - - -
29/03:30pm 22.5 SE 14 19 1018.0 - 0.0 - - 10 - - - -
29/03:00pm 24.7 SE 16 21 1018.1 - 0.0 - - 10 - - - -
29/02:30pm 24.7 ESE 13 17 1018.3 - 0.0 - - 10 - - - -
29/02:00pm 24.5 E 13 18 1018.4 - 0.0 - - 10 - - - -
29/01:30pm 23.9 E 12 17 1018.6 - 0.0 - - 10 - - - -
29/01:00pm 23.9 ENE 13 17 1018.8 - 0.0 - - 10 - - - -
29/12:30pm 22.9 ENE 15 19 1019.0 - 0.0 - - 10 - - - -
29/12:00pm 22.3 ENE 16 20 1019.2 - 0.0 - - 10 - - - -
29/11:30am 21.9 ENE 14 19 1019.4 - 0.0 - - 10 - - - -
29/11:00am 22.2 ENE 15 19 1019.4 - 0.0 - - 10 - - - -
29/10:30am 20.8 ENE 15 20 1019.5 - 0.0 - - 10 - - - -
29/10:00am 21.4 E 15 19 1019.5 - 0.0 - - 10 - - - -
29/09:30am 20.7 E 14 18 1019.5 - 0.0 - - 10 - - - -
29/09:00am 19.9 E 14 18 1019.7 - 0.0 - - 10 - - - -
29/08:30am 18.9 ESE 15 19 1019.4 - 0.0 - - 10 - - - -
29/08:00am 18.0 ESE 12 17 1019.2 - 0.0 - - 10 - - - -
29/07:30am 16.8 SE 9 13 1019.0 - 0.0 - - 10 - - - -
29/07:00am 15.7 SE 9 12 1018.6 - 0.0 - - 10 - - - -
29/06:30am 15.4 SE 9 11 1018.4 - 0.0 - - 10 - - - -
29/06:00am 15.6 SE 10 13 1018.1 - 0.0 - - 10 - - - -
29/05:30am 15.4 SE 8 11 1018.0 - 0.0 - - 10 - - - -
29/05:00am 14.8 SSE 5 7 1017.8 - 0.0 - - 10 - - - -
29/04:30am 14.9 SSE 7 9 1017.8 - 0.0 - - 10 - - - -
29/04:00am 15.1 SSE 6 7 1017.8 - 0.0 - - 10 - - - -
29/03:30am 15.8 SSE 7 10 1017.8 - 0.0 - - 10 - - - -
29/03:00am 16.3 SSE 9 11 1017.8 - 0.0 - - 10 - - - -
29/02:30am 16.5 SSE 9 13 1017.8 - 0.0 - - 10 - - - -
29/02:00am 16.8 SSE 11 16 1017.8 - 0.0 - - 10 - - - -
29/01:30am 16.9 SSE 11 16 1018.0 - 0.0 - - 10 - - - -
29/01:00am 16.9 SSE 11 15 1018.2 - 0.0 - Partly cloudy 10 - - - -
29/12:33am 17.0 SSE 11 16 1018.1 - 0.0 - Partly cloudy 10 - - - -
29/12:30am 17.0 SSE 13 20 1018.1 - 0.0 - Partly cloudy 10 - - - -
29/12:00am 17.4 SE 13 18 1018.3 - 0.0 - Mostly cloudy 10 - - - -
 
Date/Time
CDT
Temp

°C
Wind Pressure Rain
since 9am
mm
Weather Cloud Vis
km
Sea
Height
m
Swell
Dir
 
Speed
knots
Gust
knots
hPa Trend Height
m
Period
s
Dir
28/11:30pm 17.4 E 8 13 1018.8 - 0.0 - Cloudy 10 - - - -
28/11:00pm 17.2 SE 9 18 1018.6 - 0.0 - Cloudy 10 - - - -
28/10:32pm 17.0 SE 14 19 1018.5 - 0.0 - Partly cloudy 10 - - - -
28/10:30pm 17.0 SSE 14 20 1018.5 - 0.0 - Partly cloudy 10 - - - -
28/10:00pm 17.0 SSE 15 23 1018.4 - 0.0 - Partly cloudy 10 - - - -
28/09:30pm 16.9 SSE 15 25 1018.1 - 0.0 - Partly cloudy 10 - - - -
28/09:04pm 16.9 SSE 15 25 1018.2 - 0.0 - Partly cloudy 10 - - - -
28/09:00pm 16.9 SSE 17 25 1018.2 - 0.0 - Mostly clear 10 - - - -

Other Formats:

Comma delimited format used in spreadsheet applications
http://www.bom.gov.au/fwo/IDS60701/IDS60701.95807.axf

JavaScript Object Notation format (JSON) in row-major order
http://www.bom.gov.au/fwo/IDS60701/IDS60701.95807.json